createdAt,value
2023-01-20T00:02:23.037Z,99970.66
2023-01-20T00:05:25.469Z,99974.94
2023-01-20T00:08:27.914Z,99972.22
2023-01-20T00:11:30.848Z,99971.81
2023-01-20T00:14:33.388Z,99966.34
2023-01-20T00:17:35.748Z,99961.38
2023-01-20T00:20:38.209Z,99981.53
2023-01-20T00:23:41.336Z,99981.09
2023-01-20T00:26:43.662Z,99991.78
2023-01-20T00:29:46.854Z,99990.69
2023-01-20T00:32:49.184Z,99988.63
2023-01-20T00:35:51.567Z,99983.56
2023-01-20T00:38:54.232Z,99990.34
2023-01-20T00:41:56.572Z,99996.94
2023-01-20T00:44:58.966Z,100008.94
2023-01-20T00:48:01.200Z,100014.91
2023-01-20T00:51:04.292Z,100004.44
2023-01-20T00:54:06.669Z,100018.22
2023-01-20T00:57:08.921Z,100012.50
2023-01-20T01:00:11.734Z,100012.09
2023-01-20T01:03:14.183Z,99998.97
2023-01-20T01:06:18.397Z,100025.72
2023-01-20T01:09:21.925Z,100014.81
2023-01-20T01:12:24.349Z,100032.94
2023-01-20T01:15:27.379Z,100040.97
2023-01-20T01:18:29.694Z,100041.34
2023-01-20T01:21:32.085Z,100034.53
2023-01-20T01:24:34.395Z,100030.19
2023-01-20T01:27:37.275Z,100040.72
2023-01-20T01:30:39.721Z,100047.31
2023-01-20T01:33:42.266Z,100050.22
2023-01-20T01:36:44.587Z,100051.28
2023-01-20T01:39:46.963Z,100039.94
2023-01-20T01:42:49.219Z,100052.28
2023-01-20T01:45:51.661Z,100052.88
2023-01-20T01:48:54.317Z,100046.91
2023-01-20T01:52:00.766Z,100040.13
2023-01-20T01:55:03.854Z,100044.63
2023-01-20T01:58:07.735Z,100045.66
2023-01-20T02:01:10.098Z,100045.22
2023-01-20T02:04:14.887Z,100048.50
2023-01-20T02:07:20.372Z,100049.75
2023-01-20T02:10:22.714Z,100056.13
2023-01-20T02:13:25.070Z,100060.25
2023-01-20T02:16:35.297Z,100074.44
2023-01-20T02:20:09.757Z,100080.63
2023-01-20T02:23:33.458Z,100074.50
2023-01-20T02:26:43.569Z,100081.59
2023-01-20T02:29:57.727Z,100084.78
2023-01-20T02:33:15.867Z,100088.69
2023-01-20T02:36:43.962Z,100089.47
2023-01-20T02:40:05.212Z,100097.72
2023-01-20T02:43:16.035Z,100104.34
2023-01-20T02:46:18.288Z,100099.59
2023-01-20T02:49:29.917Z,100114.63
2023-01-20T02:52:36.531Z,100107.41
2023-01-20T02:55:42.467Z,100115.22
2023-01-20T02:58:51.408Z,100120.19
2023-01-20T03:02:14.165Z,100119.75
2023-01-20T03:05:21.703Z,100116.75
2023-01-20T03:08:27.130Z,100122.28
2023-01-20T03:11:31.991Z,100132.78
2023-01-20T03:14:34.530Z,100129.28
2023-01-20T03:17:36.914Z,100144.69
2023-01-20T03:20:39.172Z,100142.81
2023-01-20T03:23:49.924Z,100149.59
2023-01-20T03:26:52.343Z,100154.13
2023-01-20T03:29:54.624Z,100145.28
2023-01-20T03:32:57.054Z,100154.13
2023-01-20T03:35:59.441Z,100153.94
2023-01-20T03:39:01.929Z,100134.34
2023-01-20T03:42:08.806Z,100140.75
2023-01-20T03:45:25.391Z,100158.47
2023-01-20T03:48:27.605Z,100153.94
2023-01-20T03:51:33.646Z,100149.16
2023-01-20T03:54:47.623Z,100148.09
2023-01-20T03:57:59.670Z,100146.72
2023-01-20T04:01:17.927Z,100149.81
2023-01-20T04:04:20.828Z,100146.16
2023-01-20T04:07:26.333Z,100143.44
2023-01-20T04:10:30.551Z,100150.72
2023-01-20T04:13:32.979Z,100148.53
2023-01-20T04:16:35.342Z,100141.28
2023-01-20T04:19:37.701Z,100157.94
2023-01-20T04:22:45.034Z,100162.31
2023-01-20T04:25:47.370Z,100172.03
2023-01-20T04:28:49.670Z,100168.72
2023-01-20T04:31:59.338Z,100176.75
2023-01-20T04:35:01.751Z,100181.03
2023-01-20T04:38:04.160Z,100173.88
2023-01-20T04:41:06.574Z,100183.81
2023-01-20T04:44:08.893Z,100191.81
2023-01-20T04:47:11.165Z,100193.44
2023-01-20T04:50:14.381Z,100194.88
2023-01-20T04:53:19.310Z,100201.25
2023-01-20T04:56:21.677Z,100198.97
2023-01-20T04:59:24.035Z,100220.28
2023-01-20T05:02:26.575Z,100213.78
2023-01-20T05:05:29.588Z,100222.16
2023-01-20T05:08:31.868Z,100228.53
2023-01-20T05:11:34.227Z,100240.34
2023-01-20T05:14:36.493Z,100238.28
2023-01-20T05:17:38.883Z,100238.06
2023-01-20T05:20:41.285Z,100245.69
2023-01-20T05:23:43.629Z,100250.22
2023-01-20T05:26:45.891Z,100257.72
2023-01-20T05:29:48.146Z,100249.56
2023-01-20T05:32:51.137Z,100255.66
2023-01-20T05:35:55.898Z,100262.53
2023-01-20T05:38:58.446Z,100269.69
2023-01-20T05:42:02.516Z,100279.78
2023-01-20T05:45:05.189Z,100280.06
2023-01-20T05:48:07.493Z,100282.25
2023-01-20T05:51:09.858Z,100283.38
2023-01-20T05:54:12.142Z,100285.09
2023-01-20T05:57:18.312Z,100295.22
2023-01-20T06:00:21.054Z,100303.97
2023-01-20T06:03:23.322Z,100295.16
2023-01-20T06:06:25.725Z,100308.94
2023-01-20T06:09:28.020Z,100324.75
2023-01-20T06:12:30.307Z,100331.78
2023-01-20T06:15:32.628Z,100337.69
2023-01-20T06:18:36.120Z,100352.44
2023-01-20T06:21:38.428Z,100354.00
2023-01-20T06:24:40.957Z,100364.13
2023-01-20T06:27:43.299Z,100378.94
2023-01-20T06:30:45.596Z,100389.91
2023-01-20T06:33:47.850Z,100399.56
2023-01-20T06:36:50.218Z,100406.44
2023-01-20T06:39:52.470Z,100396.19
2023-01-20T06:42:54.802Z,100415.47
2023-01-20T06:46:04.107Z,100423.91
2023-01-20T06:49:06.495Z,100431.56
2023-01-20T06:52:09.822Z,100430.19
2023-01-20T06:55:12.451Z,100443.88
2023-01-20T06:58:14.969Z,100431.91
2023-01-20T07:01:23.301Z,100464.25
2023-01-20T07:04:25.669Z,100455.63
2023-01-20T07:07:27.994Z,100455.81
2023-01-20T07:10:30.316Z,100449.41
2023-01-20T07:13:32.658Z,100450.94
2023-01-20T07:16:35.475Z,100459.84
2023-01-20T07:19:37.796Z,100462.13
2023-01-20T07:22:40.130Z,100471.44
2023-01-20T07:25:42.490Z,100478.63
2023-01-20T07:28:44.929Z,100478.75
2023-01-20T07:31:47.373Z,100484.84
2023-01-20T07:34:50.340Z,100478.69
2023-01-20T07:37:52.896Z,100486.50
2023-01-20T07:41:04.942Z,100491.50
2023-01-20T07:44:07.586Z,100498.59
2023-01-20T07:47:09.863Z,100499.22
2023-01-20T07:50:12.156Z,100512.81
2023-01-20T07:53:14.467Z,100505.50
2023-01-20T07:56:28.211Z,100509.00
2023-01-20T07:59:30.620Z,100510.16
2023-01-20T08:02:38.433Z,100527.03
2023-01-20T08:05:41.001Z,100532.22
2023-01-20T08:08:43.649Z,100539.84
2023-01-20T08:11:46.144Z,100534.63
2023-01-20T08:14:48.442Z,100538.31
2023-01-20T08:17:55.453Z,100554.69
2023-01-20T08:20:57.744Z,100557.59
2023-01-20T08:24:01.821Z,100569.72
2023-01-20T08:27:04.331Z,100566.09
2023-01-20T08:30:07.217Z,100560.78
2023-01-20T08:33:09.502Z,100559.81
2023-01-20T08:36:17.718Z,100557.00
2023-01-20T08:39:20.400Z,100556.38
2023-01-20T08:42:22.760Z,100557.78
2023-01-20T08:45:25.069Z,100575.16
2023-01-20T08:48:27.640Z,100572.91
2023-01-20T08:51:32.326Z,100562.34
2023-01-20T08:54:34.746Z,100564.34
2023-01-20T08:57:37.260Z,100563.91
2023-01-20T09:00:39.553Z,100570.56
2023-01-20T09:03:45.026Z,100570.59
2023-01-20T09:06:52.892Z,100575.50
2023-01-20T09:09:55.250Z,100576.00
2023-01-20T09:12:57.462Z,100581.69
2023-01-20T09:15:59.795Z,100584.53
2023-01-20T09:19:03.461Z,100583.06
2023-01-20T09:22:05.729Z,100586.22
2023-01-20T09:25:09.679Z,100583.19
2023-01-20T09:28:12.460Z,100605.94
2023-01-20T09:31:14.968Z,100605.59
2023-01-20T09:34:24.829Z,100601.22
2023-01-20T09:37:46.073Z,100591.31
2023-01-20T09:41:23.311Z,100601.41
2023-01-20T09:44:44.064Z,100592.25
2023-01-20T09:47:48.119Z,100588.50
2023-01-20T09:51:13.658Z,100590.28
2023-01-20T09:54:25.326Z,100586.75
2023-01-20T09:57:28.457Z,100591.72
2023-01-20T10:00:32.221Z,100591.66
2023-01-20T10:03:59.549Z,100587.22
2023-01-20T10:07:10.692Z,100596.31
2023-01-20T10:10:15.915Z,100590.16
2023-01-20T10:13:25.100Z,100597.28
2023-01-20T10:16:40.651Z,100588.75
2023-01-20T10:19:56.312Z,100609.69
2023-01-20T10:23:04.794Z,100597.09
2023-01-20T10:26:11.698Z,100596.50
2023-01-20T10:29:39.744Z,100601.88
2023-01-20T10:32:48.256Z,100609.69
2023-01-20T10:35:53.631Z,100610.94
2023-01-20T10:39:05.855Z,100614.06
2023-01-20T10:42:13.555Z,100619.06
2023-01-20T10:45:21.532Z,100613.94
2023-01-20T10:48:29.696Z,100621.75
2023-01-20T10:51:54.024Z,100638.53
2023-01-20T10:55:07.983Z,100640.75
2023-01-20T10:58:13.542Z,100634.81
2023-01-20T11:01:17.740Z,100625.38
2023-01-20T11:04:21.503Z,100612.19
2023-01-20T11:07:23.891Z,100626.06
2023-01-20T11:10:33.566Z,100627.75
2023-01-20T11:13:36.080Z,100623.47
2023-01-20T11:16:40.536Z,100637.75
2023-01-20T11:19:47.428Z,100634.94
2023-01-20T11:22:50.687Z,100641.31
2023-01-20T11:26:01.338Z,100657.41
2023-01-20T11:29:29.909Z,100653.56
2023-01-20T11:32:35.218Z,100633.97
2023-01-20T11:35:37.903Z,100658.31
2023-01-20T11:38:48.833Z,100667.00
2023-01-20T11:42:16.258Z,100672.06
2023-01-20T11:45:31.186Z,100669.13
2023-01-20T11:48:33.609Z,100689.50
2023-01-20T11:51:45.250Z,100689.25
2023-01-20T11:54:48.094Z,100695.09
2023-01-20T11:57:54.622Z,100695.06
2023-01-20T12:01:01.845Z,100697.69
2023-01-20T12:04:32.983Z,100702.00
2023-01-20T12:07:45.732Z,100702.06
2023-01-20T12:10:49.777Z,100700.13
2023-01-20T12:14:22.621Z,100703.91
2023-01-20T12:17:38.570Z,100702.03
2023-01-20T12:20:58.139Z,100715.81
2023-01-20T12:24:05.884Z,100700.34
2023-01-20T12:27:16.806Z,100710.63
2023-01-20T12:30:45.363Z,100717.75
2023-01-20T12:33:58.158Z,100714.25
2023-01-20T12:37:32.788Z,100721.13
2023-01-20T12:40:51.929Z,100716.53
2023-01-20T12:44:06.535Z,100725.78
2023-01-20T12:47:28.587Z,100725.72
2023-01-20T12:50:52.686Z,100729.19
2023-01-20T12:54:13.808Z,100732.34
2023-01-20T12:57:31.957Z,100732.16
2023-01-20T13:00:55.394Z,100727.84
2023-01-20T13:04:21.767Z,100733.22
2023-01-20T13:07:59.261Z,100733.47
2023-01-20T13:11:09.534Z,100739.94
2023-01-20T13:14:39.384Z,100743.13
2023-01-20T13:18:05.918Z,100747.66
2023-01-20T13:21:18.808Z,100753.53
2023-01-20T13:24:29.282Z,100778.59
2023-01-20T13:27:36.708Z,100775.47
2023-01-20T13:30:48.102Z,100784.22
2023-01-20T13:33:50.640Z,100787.44
2023-01-20T13:37:15.503Z,100787.19
2023-01-20T13:40:36.024Z,100797.63
2023-01-20T13:43:48.252Z,100797.16
2023-01-20T13:46:50.760Z,100791.28
2023-01-20T13:49:54.767Z,100785.69
2023-01-20T13:53:15.303Z,100800.22
2023-01-20T13:56:33.024Z,100800.78
2023-01-20T13:59:37.472Z,100800.47
2023-01-20T14:02:40.010Z,100805.88
2023-01-20T14:05:43.982Z,100803.38
2023-01-20T14:08:48.588Z,100808.75
2023-01-20T14:11:53.357Z,100801.50
2023-01-20T14:14:55.855Z,100800.88
2023-01-20T14:17:59.627Z,100799.34
2023-01-20T14:21:12.833Z,100801.66
2023-01-20T14:24:34.705Z,100808.75
2023-01-20T14:27:42.047Z,100806.88
2023-01-20T14:30:44.444Z,100811.03
2023-01-20T14:33:52.890Z,100800.47
2023-01-20T14:37:00.143Z,100808.59
2023-01-20T14:40:20.398Z,100819.47
2023-01-20T14:43:23.117Z,100823.56
2023-01-20T14:46:26.446Z,100839.22
2023-01-20T14:49:48.674Z,100827.25
2023-01-20T14:52:51.029Z,100834.69
2023-01-20T14:56:22.218Z,100859.69
2023-01-20T14:59:25.033Z,100850.81
2023-01-20T15:02:33.056Z,100861.94
2023-01-20T15:05:37.116Z,100857.50
2023-01-20T15:08:40.910Z,100869.38
2023-01-20T15:11:43.323Z,100876.59
2023-01-20T15:14:59.614Z,100870.41
2023-01-20T15:18:20.174Z,100891.47
2023-01-20T15:21:27.728Z,100883.53
2023-01-20T15:24:37.547Z,100884.66
2023-01-20T15:27:39.962Z,100885.75
2023-01-20T15:30:42.295Z,100892.81
2023-01-20T15:33:44.753Z,100897.53
2023-01-20T15:36:48.122Z,100906.59
2023-01-20T15:39:50.480Z,100905.47
2023-01-20T15:42:53.627Z,100903.88
2023-01-20T15:45:56.005Z,100908.88
2023-01-20T15:48:58.439Z,100926.44
2023-01-20T15:52:00.787Z,100934.53
2023-01-20T15:55:03.102Z,100942.81
2023-01-20T15:58:22.555Z,100949.91
2023-01-20T16:01:27.018Z,100940.56
2023-01-20T16:04:31.951Z,100947.16
2023-01-20T16:07:34.215Z,100956.31
2023-01-20T16:10:37.091Z,100953.88
2023-01-20T16:13:39.485Z,100951.69
2023-01-20T16:16:41.922Z,100959.50
2023-01-20T16:19:44.561Z,100961.09
2023-01-20T16:22:46.886Z,100971.50
2023-01-20T16:25:49.246Z,100960.91
2023-01-20T16:28:52.914Z,100975.16
2023-01-20T16:31:55.476Z,100987.25
2023-01-20T16:34:57.856Z,100986.41
2023-01-20T16:38:02.169Z,100980.53
2023-01-20T16:41:12.069Z,100990.84
2023-01-20T16:44:14.427Z,100989.09
2023-01-20T16:47:16.853Z,100995.66
2023-01-20T16:50:19.565Z,101004.06
2023-01-20T16:53:22.743Z,101021.22
2023-01-20T16:56:27.907Z,100998.91
2023-01-20T16:59:30.297Z,101027.97
2023-01-20T17:02:34.276Z,101026.91
2023-01-20T17:05:36.608Z,101040.25
2023-01-20T17:08:39.576Z,101049.66
2023-01-20T17:11:41.931Z,101050.78
2023-01-20T17:14:44.232Z,101061.53
2023-01-20T17:17:50.164Z,101057.84
2023-01-20T17:20:52.498Z,101062.28
2023-01-20T17:24:03.035Z,101068.47
2023-01-20T17:27:05.801Z,101068.47
2023-01-20T17:30:08.962Z,101073.19
2023-01-20T17:33:11.336Z,101074.88
2023-01-20T17:36:13.712Z,101071.13
2023-01-20T17:39:16.117Z,101067.88
2023-01-20T17:42:18.568Z,101073.56
2023-01-20T17:45:20.854Z,101071.97
2023-01-20T17:48:23.120Z,101081.19
2023-01-20T17:51:28.158Z,101081.34
2023-01-20T17:54:30.567Z,101084.09
2023-01-20T17:57:32.867Z,101094.38
2023-01-20T18:00:35.458Z,101089.31
2023-01-20T18:03:40.022Z,101095.41
2023-01-20T18:06:43.668Z,101087.91
2023-01-20T18:09:46.097Z,101089.75
2023-01-20T18:12:48.396Z,101088.81
2023-01-20T18:15:52.045Z,101089.75
2023-01-20T18:18:58.735Z,101093.63
2023-01-20T18:22:02.053Z,101094.22
2023-01-20T18:25:04.580Z,101085.91
2023-01-20T18:28:06.823Z,101099.16
2023-01-20T18:31:14.862Z,101100.06
2023-01-20T18:34:17.478Z,101101.84
2023-01-20T18:37:19.829Z,101106.66
2023-01-20T18:40:22.144Z,101113.91
2023-01-20T18:43:24.427Z,101107.59
2023-01-20T18:46:27.689Z,101115.75
2023-01-20T18:49:30.000Z,101117.06
2023-01-20T18:52:32.284Z,101112.34
2023-01-20T18:55:34.638Z,101120.06
2023-01-20T18:58:38.647Z,101120.75
2023-01-20T19:01:41.404Z,101123.41
2023-01-20T19:04:43.743Z,101123.91
2023-01-20T19:07:50.176Z,101128.50
2023-01-20T19:10:53.773Z,101129.59
2023-01-20T19:13:56.339Z,101127.59
2023-01-20T19:16:58.718Z,101117.88
2023-01-20T19:20:01.085Z,101133.13
2023-01-20T19:23:04.456Z,101141.00
2023-01-20T19:26:09.003Z,101134.84
2023-01-20T19:29:15.926Z,101137.34
2023-01-20T19:32:18.430Z,101134.06
2023-01-20T19:35:21.455Z,101147.00
2023-01-20T19:38:23.784Z,101142.00
2023-01-20T19:41:28.224Z,101144.44
2023-01-20T19:44:30.638Z,101147.88
2023-01-20T19:47:34.195Z,101136.03
2023-01-20T19:50:37.144Z,101137.84
2023-01-20T19:53:40.261Z,101113.47
2023-01-20T19:56:42.592Z,101145.38
2023-01-20T19:59:45.038Z,101145.91
2023-01-20T20:02:47.428Z,101147.72
2023-01-20T20:05:49.803Z,101146.66
2023-01-20T20:08:53.389Z,101151.97
2023-01-20T20:11:56.258Z,101149.28
2023-01-20T20:14:58.955Z,101152.91
2023-01-20T20:18:01.307Z,101152.97
2023-01-20T20:21:05.150Z,101161.56
2023-01-20T20:24:07.923Z,101158.59
2023-01-20T20:27:10.444Z,101154.56
2023-01-20T20:30:13.075Z,101170.84
2023-01-20T20:33:15.404Z,101175.75
2023-01-20T20:36:17.784Z,101179.44
2023-01-20T20:39:21.578Z,101188.03
2023-01-20T20:42:23.941Z,101181.69
2023-01-20T20:45:26.603Z,101194.47
2023-01-20T20:48:29.239Z,101181.34
2023-01-20T20:51:34.031Z,101186.78
2023-01-20T20:54:36.391Z,101201.19
2023-01-20T20:57:38.711Z,101205.09
2023-01-20T21:00:41.008Z,101208.84
2023-01-20T21:03:44.022Z,101213.34
2023-01-20T21:06:46.406Z,101222.13
2023-01-20T21:09:48.737Z,101219.94
2023-01-20T21:12:51.152Z,101214.47
2023-01-20T21:16:03.801Z,101223.94
2023-01-20T21:19:06.238Z,101235.66
2023-01-20T21:22:08.733Z,101243.72
2023-01-20T21:25:11.088Z,101241.69
2023-01-20T21:28:13.433Z,101226.22
2023-01-20T21:31:21.695Z,101224.81
2023-01-20T21:34:24.084Z,101230.66
2023-01-20T21:37:26.340Z,101207.91
2023-01-20T21:40:28.764Z,101206.59
2023-01-20T21:43:51.396Z,101210.84
2023-01-20T21:46:53.806Z,101222.66
2023-01-20T21:50:15.172Z,101225.91
2023-01-20T21:53:17.609Z,101231.22
2023-01-20T21:56:20.137Z,101243.06
2023-01-20T21:59:22.710Z,101242.25
2023-01-20T22:02:25.065Z,101247.69
2023-01-20T22:05:27.518Z,101238.38
2023-01-20T22:08:29.851Z,101240.69
2023-01-20T22:11:32.180Z,101239.56
2023-01-20T22:14:34.507Z,101240.88
2023-01-20T22:17:36.882Z,101226.81
2023-01-20T22:20:39.216Z,101230.78
2023-01-20T22:23:41.570Z,101223.41
2023-01-20T22:26:48.255Z,101223.41
2023-01-20T22:29:50.563Z,101231.88
2023-01-20T22:32:52.916Z,101228.38
2023-01-20T22:35:55.304Z,101234.91
2023-01-20T22:38:57.577Z,101224.59
2023-01-20T22:41:59.844Z,101233.41
2023-01-20T22:45:02.139Z,101231.19
2023-01-20T22:48:04.618Z,101222.81
2023-01-20T22:51:17.719Z,101219.22
2023-01-20T22:54:20.072Z,101197.31
2023-01-20T22:57:22.434Z,101223.38
2023-01-20T23:00:24.725Z,101237.38
2023-01-20T23:03:27.307Z,101237.19
2023-01-20T23:06:33.355Z,101231.59
2023-01-20T23:09:35.709Z,101226.06
2023-01-20T23:12:38.020Z,101238.28
2023-01-20T23:15:40.328Z,101246.47
2023-01-20T23:18:43.070Z,101253.69
2023-01-20T23:21:45.443Z,101252.69
2023-01-20T23:24:47.730Z,101248.19
2023-01-20T23:27:50.012Z,101248.81
2023-01-20T23:30:52.309Z,101240.41
2023-01-20T23:33:54.901Z,101249.38
2023-01-20T23:36:57.527Z,101247.81
2023-01-20T23:39:59.821Z,101244.75
2023-01-20T23:43:02.421Z,101242.25
2023-01-20T23:46:06.237Z,101231.28
2023-01-20T23:49:09.002Z,101224.78
2023-01-20T23:52:11.313Z,101225.78
2023-01-20T23:55:13.708Z,101222.56
2023-01-20T23:58:16.020Z,101216.84
